Time;durP1;ratioP1;P1;durP2;ratioP2;P2;SDS_P1;SDS_P2;PMS_P1;PMS_P2;Temp;Humidity;BMP_temperature;BMP_pressure;BME280_temperature;BME280_humidity;BME280_pressure;Samples;Min_cycle;Max_cycle;Signal;HPM_P1;HPM_P2
2023/03/21 00:01:57;;;;;;;19.35;2.05;;;23.70;41.80;;;;;;5124186;27;20106;-60
2023/03/21 00:04:26;;;;;;;9.52;1.70;;;23.70;42.00;;;;;;5123768;27;20123;-59
2023/03/21 00:06:53;;;;;;;13.27;2.10;;;23.70;42.50;;;;;;5120264;27;20116;-57
2023/03/21 00:09:20;;;;;;;17.25;1.27;;;23.70;42.80;;;;;;5117023;27;20083;-62
2023/03/21 00:11:47;;;;;;;21.08;1.80;;;23.60;43.30;;;;;;5123054;27;20444;-57
2023/03/21 00:14:17;;;;;;;13.00;1.80;;;23.50;43.00;;;;;;5124651;27;20075;-66
2023/03/21 00:16:44;;;;;;;9.13;1.35;;;23.40;43.50;;;;;;5121567;27;20082;-63
2023/03/21 00:19:13;;;;;;;14.40;1.60;;;23.30;43.60;;;;;;5122777;27;20196;-62
2023/03/21 00:21:41;;;;;;;7.95;1.85;;;23.30;44.00;;;;;;5120592;27;20547;-65
2023/03/21 00:24:08;;;;;;;9.95;1.40;;;23.10;44.30;;;;;;5123833;27;20081;-66
2023/03/21 00:26:34;;;;;;;12.80;1.27;;;23.00;45.10;;;;;;5126384;27;20077;-64
2023/03/21 00:29:01;;;;;;;12.77;2.10;;;22.90;45.80;;;;;;5118749;27;20067;-64
2023/03/21 00:31:27;;;;;;;11.52;2.20;;;22.90;46.10;;;;;;5123109;27;20159;-59
2023/03/21 00:33:54;;;;;;;10.68;1.20;;;22.90;46.30;;;;;;5119595;27;20155;-63
2023/03/21 00:36:20;;;;;;;5.97;0.90;;;22.80;46.30;;;;;;5120030;27;20118;-64
2023/03/21 00:38:47;;;;;;;36.70;2.28;;;22.60;46.40;;;;;;5122858;27;20090;-60
2023/03/21 00:41:13;;;;;;;12.07;1.33;;;22.60;46.40;;;;;;5126374;27;20088;-58
2023/03/21 00:43:40;;;;;;;5.20;1.10;;;22.50;46.30;;;;;;5118363;27;20083;-60
2023/03/21 00:46:07;;;;;;;6.82;1.25;;;22.50;46.80;;;;;;5117279;27;20066;-62
2023/03/21 00:48:33;;;;;;;3.60;1.00;;;22.60;46.90;;;;;;5121680;27;20082;-57
2023/03/21 00:50:59;;;;;;;9.88;1.55;;;22.50;47.30;;;;;;5115174;27;20082;-62
2023/03/21 00:53:27;;;;;;;8.27;0.90;;;22.50;47.70;;;;;;5117869;27;20128;-57
2023/03/21 00:55:53;;;;;;;6.53;1.50;;;22.40;47.70;;;;;;5118877;27;20513;-62
2023/03/21 00:58:20;;;;;;;9.48;2.17;;;22.40;48.90;;;;;;5117586;27;20078;-64
2023/03/21 01:00:46;;;;;;;8.30;1.75;;;22.20;49.90;;;;;;5115447;27;20125;-64
2023/03/21 01:03:14;;;;;;;6.00;1.70;;;22.00;49.90;;;;;;5122391;27;20113;-63
2023/03/21 01:08:30;;;;;;;7.50;1.70;;;22.00;51.20;;;;;;5117291;27;20101;-60
2023/03/21 01:11:00;;;;;;;10.60;1.40;;;22.00;50.60;;;;;;5117284;27;20067;-62
2023/03/21 01:13:26;;;;;;;5.20;1.23;;;21.90;50.10;;;;;;5113642;27;20170;-64
2023/03/21 01:15:55;;;;;;;14.35;1.58;;;22.00;50.40;;;;;;5115220;27;20473;-58
2023/03/21 01:18:26;;;;;;;4.55;1.20;;;22.00;50.00;;;;;;5116650;27;20178;-64
2023/03/21 01:20:54;;;;;;;8.25;1.52;;;21.90;49.50;;;;;;5118731;27;20570;-63
2023/03/21 01:23:21;;;;;;;4.13;1.77;;;21.90;49.50;;;;;;5119622;27;20086;-64
2023/03/21 01:25:49;;;;;;;3.58;1.20;;;21.80;49.90;;;;;;5119865;27;20143;-59
2023/03/21 01:28:16;;;;;;;9.38;1.40;;;21.80;50.20;;;;;;5121498;27;20071;-63
2023/03/21 01:30:47;;;;;;;6.65;1.23;;;21.70;50.40;;;;;;5120924;27;20097;-63
2023/03/21 01:33:15;;;;;;;13.90;1.50;;;21.70;50.20;;;;;;5122525;27;20075;-61
2023/03/21 01:35:42;;;;;;;5.15;1.70;;;21.80;50.10;;;;;;5116516;27;20102;-64
2023/03/21 01:38:09;;;;;;;4.63;1.50;;;21.80;50.10;;;;;;5124007;27;20079;-64
2023/03/21 01:40:37;;;;;;;6.05;1.70;;;21.70;50.20;;;;;;5119398;27;20448;-61
2023/03/21 01:43:11;;;;;;;8.07;1.70;;;21.60;50.60;;;;;;5117772;27;20071;-62
2023/03/21 01:46:09;;;;;;;8.77;2.42;;;21.60;50.80;;;;;;5115966;27;20078;-64
2023/03/21 01:48:42;;;;;;;7.57;3.00;;;21.60;51.40;;;;;;5120271;27;20067;-63
2023/03/21 01:51:11;;;;;;;5.75;1.30;;;21.40;52.30;;;;;;5116446;27;20071;-60
2023/03/21 01:53:40;;;;;;;7.22;1.73;;;21.30;51.60;;;;;;5117036;27;20093;-61
2023/03/21 01:56:23;;;;;;;7.57;0.95;;;21.30;51.40;;;;;;5122243;27;20075;-60
2023/03/21 01:58:51;;;;;;;2.80;0.90;;;21.30;50.70;;;;;;5120225;27;20094;-58
2023/03/21 02:01:21;;;;;;;7.10;1.20;;;21.30;50.50;;;;;;5120476;27;20180;-64
2023/03/21 02:03:49;;;;;;;4.72;1.20;;;21.30;50.80;;;;;;5117491;27;20067;-65
2023/03/21 02:06:45;;;;;;;19.80;1.10;;;21.20;50.80;;;;;;5115958;27;20074;-63
2023/03/21 02:09:17;;;;;;;3.97;1.48;;;21.10;50.90;;;;;;5114712;27;20420;-60
2023/03/21 02:11:45;;;;;;;1.75;1.10;;;21.10;50.90;;;;;;5125992;27;20070;-63
2023/03/21 02:14:15;;;;;;;8.10;1.10;;;21.00;49.60;;;;;;5118109;27;20408;-64
2023/03/21 02:16:48;;;;;;;9.57;2.00;;;21.00;49.30;;;;;;5121115;27;20067;-65
2023/03/21 02:19:52;;;;;;;5.50;1.27;;;21.00;49.50;;;;;;5118578;27;20992;-65
2023/03/21 02:22:37;;;;;;;16.10;1.90;;;20.90;49.70;;;;;;5092398;27;20094;-62
2023/03/21 02:25:24;;;;;;;3.47;1.40;;;20.90;50.20;;;;;;5118253;27;20587;-65
2023/03/21 02:28:01;;;;;;;6.82;1.60;;;20.90;50.40;;;;;;5117613;27;20158;-60
2023/03/21 02:30:39;;;;;;;27.13;1.63;;;20.90;50.50;;;;;;5127001;27;20516;-63
2023/03/21 02:33:18;;;;;;;9.70;1.55;;;20.80;50.40;;;;;;5120251;27;20063;-63
2023/03/21 02:36:12;;;;;;;5.78;1.60;;;20.70;50.40;;;;;;5125650;27;20189;-62
2023/03/21 02:39:06;;;;;;;6.13;1.35;;;20.70;50.40;;;;;;5115569;27;20082;-65
2023/03/21 02:41:51;;;;;;;4.97;1.17;;;20.80;50.80;;;;;;5070352;27;20591;-64
2023/03/21 02:44:45;;;;;;;5.18;1.10;;;20.80;51.80;;;;;;5113085;27;20067;-62
2023/03/21 02:47:23;;;;;;;4.18;1.42;;;20.60;51.50;;;;;;5114753;27;20530;-64
2023/03/21 02:49:54;;;;;;;7.22;2.05;;;20.50;51.70;;;;;;5120373;27;20074;-66
2023/03/21 02:52:26;;;;;;;4.90;1.38;;;20.50;52.10;;;;;;5115603;27;20071;-63
2023/03/21 02:54:56;;;;;;;5.03;1.80;;;20.40;52.60;;;;;;5119882;27;20092;-62
2023/03/21 02:57:22;;;;;;;12.50;1.50;;;20.40;53.00;;;;;;5108321;28;20079;-63
2023/03/21 02:59:50;;;;;;;14.43;1.60;;;20.40;53.20;;;;;;5121630;27;20581;-65
2023/03/21 03:02:21;;;;;;;7.65;1.40;;;20.30;53.30;;;;;;5119591;27;20095;-64
2023/03/21 03:04:48;;;;;;;3.17;1.20;;;20.40;53.50;;;;;;5114560;28;20107;-62
2023/03/21 03:07:34;;;;;;;15.30;1.63;;;20.20;53.50;;;;;;5116428;27;20110;-65
2023/03/21 03:10:28;;;;;;;3.40;1.33;;;20.20;53.80;;;;;;5113009;27;20082;-65
2023/03/21 03:13:00;;;;;;;5.78;1.27;;;20.10;53.90;;;;;;5116341;27;20116;-65
2023/03/21 03:15:50;;;;;;;8.63;1.83;;;20.10;54.00;;;;;;5116799;27;20071;-65
2023/03/21 03:18:24;;;;;;;3.50;1.30;;;20.10;54.10;;;;;;5116434;27;20075;-62
2023/03/21 03:21:06;;;;;;;4.85;1.20;;;20.10;54.10;;;;;;5117165;28;20086;-62
2023/03/21 03:23:45;;;;;;;8.45;1.60;;;20.10;54.10;;;;;;5112214;28;20086;-63
2023/03/21 03:26:22;;;;;;;8.20;1.10;;;20.10;53.80;;;;;;5112571;28;20523;-64
2023/03/21 03:28:53;;;;;;;3.50;0.80;;;20.10;53.90;;;;;;5119678;28;20075;-61
2023/03/21 03:31:31;;;;;;;9.45;1.27;;;20.00;53.80;;;;;;5117999;28;20112;-65
2023/03/21 03:34:05;;;;;;;3.85;1.58;;;20.00;53.80;;;;;;5110776;28;20073;-63
2023/03/21 03:36:38;;;;;;;3.00;1.73;;;20.00;53.90;;;;;;5120836;28;20114;-65
2023/03/21 03:39:08;;;;;;;9.57;1.40;;;20.00;53.80;;;;;;5114398;28;20436;-63
2023/03/21 03:41:45;;;;;;;6.97;1.33;;;20.00;53.90;;;;;;5113643;28;20107;-68
2023/03/21 03:44:12;;;;;;;4.65;1.23;;;20.10;54.40;;;;;;5113628;28;20203;-64
2023/03/21 03:46:51;;;;;;;4.47;1.00;;;19.90;55.30;;;;;;5119039;28;20074;-63
2023/03/21 03:49:22;;;;;;;4.15;1.10;;;19.90;56.40;;;;;;5124315;28;20150;-66
2023/03/21 03:51:57;;;;;;;5.60;1.23;;;19.80;57.20;;;;;;5116797;28;20071;-65
2023/03/21 03:54:38;;;;;;;4.37;1.03;;;19.80;57.30;;;;;;5119716;28;20089;-65
2023/03/21 03:57:06;;;;;;;6.13;1.00;;;19.90;56.60;;;;;;5120369;28;20165;-62
2023/03/21 03:59:38;;;;;;;7.25;0.95;;;19.80;56.20;;;;;;5119716;28;20221;-63
2023/03/21 04:02:04;;;;;;;3.20;1.15;;;19.80;56.90;;;;;;5128803;28;20090;-63
2023/03/21 04:04:31;;;;;;;4.70;1.02;;;19.80;57.10;;;;;;5112168;28;20116;-63
2023/03/21 04:06:58;;;;;;;3.03;1.02;;;19.80;57.40;;;;;;5116078;28;20201;-64
2023/03/21 04:09:27;;;;;;;0.70;0.70;;;19.70;57.50;;;;;;5121786;28;20086;-64
2023/03/21 04:11:54;;;;;;;1.70;0.65;;;19.70;57.80;;;;;;5117452;27;20068;-63
2023/03/21 04:14:20;;;;;;;2.90;0.90;;;19.60;57.90;;;;;;5119564;27;20082;-62
2023/03/21 04:16:48;;;;;;;6.75;1.10;;;19.60;58.10;;;;;;5118590;27;20550;-62
2023/03/21 04:19:14;;;;;;;3.83;0.80;;;19.60;57.80;;;;;;5117822;27;20071;-61
2023/03/21 04:21:42;;;;;;;3.05;1.05;;;19.60;58.10;;;;;;5118236;27;20087;-59
2023/03/21 04:24:08;;;;;;;11.50;8.50;;;19.60;58.20;;;;;;5120971;27;20540;-65
2023/03/21 04:26:35;;;;;;;6.85;1.42;;;20.10;57.90;;;;;;5116589;27;20527;-64
2023/03/21 04:29:02;;;;;;;5.32;1.33;;;20.20;57.60;;;;;;5117192;27;20099;-66
2023/03/21 04:31:35;;;;;;;10.68;1.17;;;20.40;56.80;;;;;;5117126;27;20163;-65
2023/03/21 04:34:08;;;;;;;2.13;1.00;;;20.40;56.80;;;;;;5123826;27;20093;-66
2023/03/21 04:36:45;;;;;;;1.75;1.05;;;20.30;57.10;;;;;;5121602;27;20108;-66
2023/03/21 04:39:12;;;;;;;7.10;1.15;;;20.30;57.40;;;;;;5118908;27;20095;-65
2023/03/21 04:41:41;;;;;;;5.05;1.15;;;20.40;57.20;;;;;;5122797;27;20170;-67
2023/03/21 04:44:09;;;;;;;3.08;0.80;;;20.40;56.90;;;;;;5124350;27;20128;-66
2023/03/21 04:46:35;;;;;;;4.18;1.08;;;20.30;57.20;;;;;;5116681;27;20078;-66
2023/03/21 04:49:03;;;;;;;3.35;1.00;;;20.20;57.40;;;;;;5119167;27;20090;-67
2023/03/21 04:51:29;;;;;;;1.52;0.88;;;20.20;57.60;;;;;;5122769;27;20067;-66
2023/03/21 04:53:56;;;;;;;3.30;1.10;;;20.10;57.70;;;;;;5119868;27;20087;-65
2023/03/21 04:56:30;;;;;;;7.32;1.40;;;20.00;57.60;;;;;;5121391;27;20149;-60
2023/03/21 04:59:02;;;;;;;6.72;3.00;;;19.70;57.70;;;;;;5122804;27;20169;-64
2023/03/21 05:01:31;;;;;;;3.95;2.70;;;19.70;57.70;;;;;;5117950;27;20169;-59
2023/03/21 05:04:02;;;;;;;4.13;1.25;;;19.60;57.70;;;;;;5122011;27;20063;-63
2023/03/21 05:06:29;;;;;;;3.95;0.90;;;19.60;57.50;;;;;;5124439;27;20094;-61
2023/03/21 05:09:00;;;;;;;2.50;0.80;;;19.60;57.70;;;;;;5118953;27;20177;-61
2023/03/21 05:11:29;;;;;;;1.55;0.80;;;19.60;58.10;;;;;;5118036;27;20121;-61
2023/03/21 05:13:56;;;;;;;0.73;0.70;;;19.60;58.30;;;;;;5122004;27;20075;-61
2023/03/21 05:16:29;;;;;;;3.10;0.90;;;19.50;58.50;;;;;;5126605;27;20090;-63
2023/03/21 05:18:57;;;;;;;2.15;0.93;;;19.50;58.60;;;;;;5122585;27;20078;-58
2023/03/21 05:21:28;;;;;;;2.85;1.10;;;19.50;58.80;;;;;;5120862;27;20087;-60
2023/03/21 05:23:57;;;;;;;3.22;0.80;;;19.50;58.60;;;;;;5125091;27;20109;-60
2023/03/21 05:26:24;;;;;;;5.60;0.70;;;19.50;58.90;;;;;;5124731;27;20079;-59
2023/03/21 05:28:50;;;;;;;3.75;0.98;;;19.60;58.40;;;;;;5120196;27;20579;-62
2023/03/21 05:31:18;;;;;;;3.50;0.70;;;19.60;58.40;;;;;;5121173;27;20079;-61
2023/03/21 05:33:45;;;;;;;7.63;1.02;;;19.50;58.70;;;;;;5122320;27;20077;-61
2023/03/21 05:36:12;;;;;;;4.93;0.90;;;19.50;58.80;;;;;;5116503;27;20160;-62
2023/03/21 05:38:44;;;;;;;3.55;1.10;;;19.50;58.70;;;;;;5121109;27;20067;-62
2023/03/21 05:41:11;;;;;;;3.13;0.98;;;19.40;58.90;;;;;;5119937;27;20471;-61
2023/03/21 05:43:38;;;;;;;3.35;0.70;;;19.40;58.60;;;;;;5117678;27;20556;-60
2023/03/21 05:46:04;;;;;;;1.45;0.75;;;19.50;58.70;;;;;;5114878;27;20559;-60
2023/03/21 05:48:31;;;;;;;5.13;1.00;;;19.40;58.80;;;;;;5121016;27;20070;-59
2023/03/21 05:50:57;;;;;;;5.05;1.00;;;19.40;58.80;;;;;;5116023;27;20174;-61
2023/03/21 05:53:23;;;;;;;1.35;0.70;;;19.30;59.00;;;;;;5119944;27;20067;-60
2023/03/21 05:55:50;;;;;;;3.10;0.93;;;19.40;58.90;;;;;;5120417;27;20169;-60
2023/03/21 05:58:16;;;;;;;10.63;1.17;;;19.40;58.70;;;;;;5124221;27;20183;-61
2023/03/21 06:00:43;;;;;;;4.22;1.10;;;19.30;58.80;;;;;;5126757;27;20538;-60
2023/03/21 06:03:09;;;;;;;5.35;0.98;;;19.30;58.80;;;;;;5107695;27;20070;-59
2023/03/21 06:05:36;;;;;;;6.30;0.80;;;19.40;59.00;;;;;;5122908;27;20059;-60
2023/03/21 06:08:02;;;;;;;5.53;0.95;;;19.40;58.80;;;;;;5119057;27;20572;-59
2023/03/21 06:10:29;;;;;;;2.83;0.85;;;19.50;58.70;;;;;;5126219;27;20070;-61
2023/03/21 06:12:55;;;;;;;9.23;0.80;;;19.50;58.40;;;;;;5123671;27;20086;-60
2023/03/21 06:15:22;;;;;;;6.85;1.30;;;19.50;58.20;;;;;;5123166;27;20605;-60
2023/03/21 06:17:48;;;;;;;6.47;1.10;;;19.40;58.10;;;;;;5113318;27;20078;-62
2023/03/21 06:20:14;;;;;;;4.10;0.73;;;19.20;58.50;;;;;;5118636;27;20471;-62
2023/03/21 06:22:41;;;;;;;11.88;1.00;;;19.10;58.50;;;;;;5112764;27;21110;-60
2023/03/21 06:25:08;;;;;;;7.88;0.93;;;19.00;58.60;;;;;;5115176;27;20063;-61
2023/03/21 06:27:35;;;;;;;9.90;0.85;;;19.00;58.70;;;;;;5115153;27;20157;-61
2023/03/21 06:30:01;;;;;;;6.32;0.95;;;19.00;58.80;;;;;;5116362;27;20071;-61
2023/03/21 06:32:28;;;;;;;2.35;0.90;;;19.00;58.90;;;;;;5116505;27;20086;-63
2023/03/21 06:34:54;;;;;;;6.82;1.10;;;18.90;58.90;;;;;;5123268;27;20111;-62
2023/03/21 06:37:21;;;;;;;3.53;0.80;;;18.80;59.50;;;;;;5120858;27;20112;-61
2023/03/21 06:39:47;;;;;;;4.10;0.90;;;18.80;59.50;;;;;;5116307;27;20617;-62
2023/03/21 06:42:14;;;;;;;9.00;0.95;;;18.70;59.60;;;;;;5116262;27;20517;-61
2023/03/21 06:44:41;;;;;;;7.63;0.88;;;18.70;59.70;;;;;;5118167;27;20070;-62
2023/03/21 06:47:07;;;;;;;1.83;0.65;;;18.70;59.80;;;;;;5117031;27;20110;-63
2023/03/21 06:49:34;;;;;;;2.80;0.75;;;18.80;60.10;;;;;;5119002;27;20608;-61
2023/03/21 06:52:00;;;;;;;4.72;0.63;;;18.70;59.80;;;;;;5118383;27;20082;-62
2023/03/21 06:54:27;;;;;;;4.05;1.00;;;18.70;59.90;;;;;;5122702;27;20072;-60
2023/03/21 06:56:53;;;;;;;8.18;1.15;;;18.60;60.20;;;;;;5115209;27;20114;-62
2023/03/21 06:59:20;;;;;;;13.48;1.10;;;18.60;61.30;;;;;;5126869;27;20094;-59
2023/03/21 07:01:47;;;;;;;11.85;1.10;;;18.60;60.40;;;;;;5121094;27;20623;-61
2023/03/21 07:04:13;;;;;;;5.25;1.00;;;18.60;60.40;;;;;;5120973;27;20083;-63
2023/03/21 07:06:40;;;;;;;7.82;0.88;;;18.60;60.70;;;;;;5118649;27;20584;-61
2023/03/21 07:09:06;;;;;;;11.32;2.30;;;18.60;60.70;;;;;;5125560;27;20178;-61
2023/03/21 07:11:34;;;;;;;13.68;1.75;;;18.60;61.10;;;;;;5127308;27;20142;-61
2023/03/21 07:14:01;;;;;;;5.63;1.60;;;18.60;61.20;;;;;;5117381;27;20075;-60
2023/03/21 07:16:27;;;;;;;5.88;1.20;;;18.70;61.10;;;;;;5114797;27;21878;-61
2023/03/21 07:18:55;;;;;;;17.55;7.53;;;18.70;61.10;;;;;;5114373;27;20063;-61
2023/03/21 07:21:21;;;;;;;2.42;0.60;;;18.70;60.90;;;;;;5105895;28;20097;-61
2023/03/21 07:23:49;;;;;;;4.85;0.88;;;18.70;60.90;;;;;;5121434;28;20610;-62
2023/03/21 07:26:17;;;;;;;4.57;0.80;;;18.60;61.00;;;;;;5121021;28;20098;-60
2023/03/21 07:28:44;;;;;;;6.40;1.23;;;18.70;60.90;;;;;;5120976;28;20075;-60
2023/03/21 07:31:16;;;;;;;2.83;0.65;;;18.70;60.40;;;;;;5120989;28;20074;-61
2023/03/21 07:33:43;;;;;;;3.40;0.90;;;18.70;60.60;;;;;;5118133;28;20108;-62
2023/03/21 07:36:14;;;;;;;5.18;0.90;;;18.80;60.00;;;;;;5121593;28;20563;-65
2023/03/21 07:38:41;;;;;;;6.43;1.55;;;18.70;59.80;;;;;;5120640;28;20153;-61
2023/03/21 07:41:08;;;;;;;4.07;1.00;;;18.70;60.90;;;;;;5121072;28;20111;-63
2023/03/21 07:43:34;;;;;;;3.00;0.98;;;18.80;59.80;;;;;;5121307;28;20139;-64
2023/03/21 07:46:01;;;;;;;3.63;1.00;;;18.80;60.50;;;;;;5119413;28;20074;-62
2023/03/21 07:48:29;;;;;;;4.75;0.98;;;18.90;59.50;;;;;;5124047;27;20091;-61
2023/03/21 07:50:55;;;;;;;2.78;1.42;;;18.90;59.90;;;;;;5124609;27;20082;-62
2023/03/21 07:53:22;;;;;;;3.17;0.82;;;19.00;60.50;;;;;;5125735;27;20101;-61
2023/03/21 07:55:55;;;;;;;5.80;1.20;;;19.00;60.90;;;;;;5124797;27;20074;-61
2023/03/21 07:58:22;;;;;;;12.00;4.53;;;19.00;60.80;;;;;;5108058;27;20098;-63
2023/03/21 08:00:49;;;;;;;4.00;0.90;;;19.00;60.70;;;;;;5126280;27;20095;-61
2023/03/21 08:03:15;;;;;;;8.82;1.17;;;18.90;61.20;;;;;;5125875;27;20112;-63
2023/03/21 08:05:43;;;;;;;2.40;0.90;;;18.80;61.50;;;;;;5123461;27;20086;-60
2023/03/21 08:08:09;;;;;;;3.53;1.23;;;18.70;61.50;;;;;;5123901;27;20082;-60
2023/03/21 08:10:36;;;;;;;5.25;0.98;;;18.60;62.30;;;;;;5125021;27;20149;-63
2023/03/21 08:13:03;;;;;;;4.90;1.80;;;18.60;62.40;;;;;;5122685;27;20071;-61
2023/03/21 08:15:32;;;;;;;3.55;0.80;;;18.60;62.20;;;;;;5120367;27;20074;-64
2023/03/21 08:17:59;;;;;;;4.80;0.80;;;18.60;61.60;;;;;;5121491;27;20158;-61
2023/03/21 08:20:26;;;;;;;4.15;0.80;;;18.70;61.10;;;;;;5123648;27;20082;-61
2023/03/21 08:22:53;;;;;;;5.55;0.90;;;18.60;60.90;;;;;;5126357;27;20067;-62
2023/03/21 08:25:20;;;;;;;10.75;1.20;;;18.60;61.20;;;;;;5124925;27;20076;-63
2023/03/21 08:27:47;;;;;;;1.73;0.95;;;18.60;60.80;;;;;;5123287;27;20131;-63
2023/03/21 08:30:17;;;;;;;2.45;0.80;;;18.60;60.60;;;;;;5126258;27;20170;-61
2023/03/21 08:32:44;;;;;;;2.30;0.77;;;18.70;60.30;;;;;;5107139;27;20062;-64
2023/03/21 08:35:14;;;;;;;2.95;0.85;;;18.80;59.90;;;;;;5124503;27;20094;-61
2023/03/21 08:37:41;;;;;;;3.90;0.98;;;18.80;59.70;;;;;;5124481;27;20078;-60
2023/03/21 08:40:15;;;;;;;2.53;0.75;;;18.80;59.70;;;;;;5122231;27;20119;-62
2023/03/21 08:42:42;;;;;;;3.33;0.90;;;18.70;59.80;;;;;;5122061;27;20090;-61
2023/03/21 08:45:10;;;;;;;3.50;0.95;;;18.80;59.80;;;;;;5123782;27;20092;-63
2023/03/21 08:47:37;;;;;;;5.40;0.60;;;18.80;59.90;;;;;;5123728;27;20075;-60
2023/03/21 08:50:05;;;;;;;2.25;0.80;;;18.70;59.90;;;;;;5123789;27;20550;-63
2023/03/21 08:52:32;;;;;;;3.00;0.90;;;18.70;60.00;;;;;;5121694;27;20139;-60
2023/03/21 08:54:58;;;;;;;4.07;1.05;;;18.60;59.50;;;;;;5123238;27;20519;-62
2023/03/21 08:57:25;;;;;;;2.38;0.98;;;18.50;59.70;;;;;;5122541;27;20129;-61
2023/03/21 08:59:51;;;;;;;3.70;1.00;;;18.50;60.50;;;;;;5125111;27;20078;-61
2023/03/21 09:02:17;;;;;;;2.25;0.90;;;18.40;61.80;;;;;;5120805;27;20432;-62
2023/03/21 09:04:44;;;;;;;1.23;0.90;;;18.40;62.10;;;;;;5122084;27;20071;-62
2023/03/21 09:07:13;;;;;;;5.13;1.00;;;18.30;63.00;;;;;;5122958;27;20094;-62
2023/03/21 09:09:41;;;;;;;1.30;0.73;;;18.20;63.60;;;;;;5123373;27;20539;-60
2023/03/21 09:12:07;;;;;;;2.97;0.98;;;18.10;64.10;;;;;;5123712;27;20786;-61
2023/03/21 09:14:34;;;;;;;2.05;0.82;;;18.00;64.40;;;;;;5123886;27;20070;-62
2023/03/21 09:17:00;;;;;;;5.22;1.05;;;18.00;64.60;;;;;;5120642;27;20076;-62
2023/03/21 09:19:28;;;;;;;4.32;1.13;;;17.90;64.60;;;;;;5120644;27;20078;-61
2023/03/21 09:21:56;;;;;;;2.67;1.02;;;17.90;64.50;;;;;;5125310;27;20087;-62
2023/03/21 09:24:23;;;;;;;4.30;1.30;;;17.90;64.60;;;;;;5119792;27;20066;-62
2023/03/21 09:26:50;;;;;;;1.67;0.90;;;17.80;64.90;;;;;;5124266;27;20171;-60
2023/03/21 09:29:19;;;;;;;8.63;1.10;;;17.90;64.30;;;;;;5121835;27;20078;-62
2023/03/21 09:31:46;;;;;;;3.03;0.82;;;17.90;64.20;;;;;;5124174;27;20070;-62
2023/03/21 09:34:16;;;;;;;1.83;0.90;;;17.80;64.10;;;;;;5123049;27;20106;-62
2023/03/21 09:36:47;;;;;;;1.75;0.90;;;18.00;64.30;;;;;;5119020;27;20114;-59
2023/03/21 09:39:15;;;;;;;3.63;1.30;;;18.10;63.60;;;;;;5123850;27;20077;-60
2023/03/21 09:42:08;;;;;;;6.43;1.00;;;18.10;63.90;;;;;;5120597;27;20101;-60
2023/03/21 09:44:47;;;;;;;3.95;1.00;;;18.10;63.40;;;;;;5123233;27;20101;-60
2023/03/21 09:47:20;;;;;;;6.82;0.95;;;18.20;63.30;;;;;;5123695;27;20070;-61
2023/03/21 09:50:00;;;;;;;3.60;1.10;;;18.20;63.00;;;;;;5119111;27;20082;-61
2023/03/21 09:52:33;;;;;;;4.45;1.27;;;18.20;63.50;;;;;;5118634;27;20067;-61
2023/03/21 09:55:00;;;;;;;1.98;0.90;;;18.20;63.50;;;;;;5123539;27;20509;-62
2023/03/21 09:57:31;;;;;;;4.25;1.15;;;18.20;62.80;;;;;;5123694;27;20078;-60
2023/03/21 10:00:07;;;;;;;2.13;1.10;;;18.20;62.80;;;;;;5122173;27;20066;-61
2023/03/21 10:02:52;;;;;;;2.30;1.08;;;18.20;62.80;;;;;;5122681;27;20412;-60
2023/03/21 10:05:26;;;;;;;1.95;1.05;;;18.20;63.80;;;;;;5120246;27;20103;-60
2023/03/21 10:08:04;;;;;;;1.40;0.80;;;18.20;63.30;;;;;;5123350;27;20098;-60
2023/03/21 10:10:48;;;;;;;2.90;1.00;;;18.20;63.10;;;;;;5123489;27;20088;-59
2023/03/21 10:13:28;;;;;;;4.35;1.02;;;18.30;63.40;;;;;;5118875;27;20070;-62
2023/03/21 10:16:00;;;;;;;7.95;1.38;;;18.30;63.30;;;;;;5120778;27;20062;-62
2023/03/21 10:18:30;;;;;;;1.73;0.80;;;18.20;63.50;;;;;;5122089;27;20087;-60
2023/03/21 10:20:56;;;;;;;5.88;0.90;;;18.10;63.60;;;;;;5120439;27;20174;-63
2023/03/21 10:23:27;;;;;;;1.60;0.80;;;18.10;63.80;;;;;;5120051;27;20470;-61
2023/03/21 10:26:00;;;;;;;3.67;0.80;;;18.00;64.00;;;;;;5120225;27;20073;-62
2023/03/21 10:28:36;;;;;;;4.07;0.85;;;18.00;64.10;;;;;;5120767;27;20118;-62
2023/03/21 10:31:06;;;;;;;3.10;1.10;;;18.00;64.20;;;;;;5124349;27;20077;-63
2023/03/21 10:33:40;;;;;;;6.43;1.00;;;17.90;64.60;;;;;;5120633;27;20105;-60
2023/03/21 10:36:19;;;;;;;0.73;0.70;;;17.90;64.50;;;;;;5121068;27;20133;-61
2023/03/21 10:39:03;;;;;;;1.13;0.80;;;17.90;64.80;;;;;;5115631;27;20408;-61
2023/03/21 10:41:31;;;;;;;2.65;1.05;;;17.90;65.10;;;;;;5117530;27;20208;-62
2023/03/21 10:44:07;;;;;;;1.88;0.80;;;17.80;65.00;;;;;;5121386;27;20448;-63
2023/03/21 10:46:34;;;;;;;;;;;17.80;65.50;;;;;;5120552;27;20067;-61
2023/03/21 10:49:01;;;;;;;1.95;0.98;;;17.70;65.60;;;;;;5117842;27;20015;-62
2023/03/21 10:51:32;;;;;;;1.83;0.90;;;17.60;66.00;;;;;;5121880;27;20096;-62
2023/03/21 10:54:05;;;;;;;4.60;1.00;;;17.60;66.10;;;;;;5121002;27;21917;-62
2023/03/21 10:56:36;;;;;;;5.00;1.10;;;17.60;66.30;;;;;;5120990;27;20141;-62
2023/03/21 10:59:07;;;;;;;2.03;0.80;;;17.60;66.30;;;;;;5124724;27;20527;-62
2023/03/21 11:01:40;;;;;;;2.53;0.80;;;17.60;66.50;;;;;;5124611;27;20099;-62
2023/03/21 11:04:17;;;;;;;1.75;1.20;;;17.60;66.90;;;;;;5119998;27;20071;-61
2023/03/21 11:06:56;;;;;;;3.55;1.23;;;17.60;66.60;;;;;;5121040;27;20442;-61
2023/03/21 11:09:26;;;;;;;3.78;1.08;;;17.60;66.60;;;;;;5119847;27;20094;-60
2023/03/21 11:12:01;;;;;;;2.70;1.20;;;17.60;66.60;;;;;;5121761;28;20074;-61
2023/03/21 11:14:36;;;;;;;3.30;1.05;;;17.60;67.10;;;;;;5120262;27;20082;-60
2023/03/21 11:17:17;;;;;;;2.58;1.10;;;17.60;67.10;;;;;;5120220;27;20066;-62
2023/03/21 11:19:55;;;;;;;2.72;1.00;;;17.60;67.20;;;;;;5122069;27;20083;-62
2023/03/21 11:22:24;;;;;;;9.63;2.40;;;17.60;67.30;;;;;;5122914;27;20082;-63
2023/03/21 11:24:58;;;;;;;14.13;3.08;;;17.60;67.70;;;;;;5119871;28;20106;-62
2023/03/21 11:27:30;;;;;;;8.98;3.63;;;17.50;68.70;;;;;;5119718;28;20536;-61
2023/03/21 11:29:59;;;;;;;9.85;3.70;;;17.40;69.30;;;;;;5123737;28;20063;-62
2023/03/21 11:32:37;;;;;;;13.05;4.28;;;17.30;70.00;;;;;;5122775;28;20080;-61
2023/03/21 11:35:12;;;;;;;16.65;5.03;;;17.20;70.50;;;;;;5121246;28;20110;-60
2023/03/21 11:37:49;;;;;;;17.60;5.15;;;17.20;70.70;;;;;;5117348;28;20103;-61
2023/03/21 11:40:25;;;;;;;19.70;5.05;;;17.10;71.20;;;;;;5117245;28;20118;-62
2023/03/21 11:43:17;;;;;;;14.20;4.90;;;17.10;71.50;;;;;;5117798;28;20567;-63
2023/03/21 11:46:11;;;;;;;14.82;4.90;;;17.00;71.60;;;;;;5105308;28;20095;-61
2023/03/21 11:48:40;;;;;;;17.45;4.57;;;17.00;71.80;;;;;;5120773;28;20088;-60
2023/03/21 11:51:30;;;;;;;18.42;4.10;;;16.90;71.90;;;;;;5120387;28;20073;-61
2023/03/21 11:54:18;;;;;;;14.60;4.55;;;16.90;72.00;;;;;;5121044;28;20542;-60
2023/03/21 11:56:51;;;;;;;15.88;5.18;;;16.80;72.30;;;;;;5117332;28;20078;-61
2023/03/21 11:59:36;;;;;;;14.18;4.72;;;16.90;72.50;;;;;;5121579;28;20071;-61
2023/03/21 12:02:27;;;;;;;20.10;5.55;;;16.90;72.50;;;;;;5121633;28;20082;-60
2023/03/21 12:05:06;;;;;;;16.05;5.18;;;16.80;72.90;;;;;;5119848;28;20063;-63
2023/03/21 12:07:41;;;;;;;14.38;4.57;;;16.80;74.10;;;;;;5117686;28;20083;-63
2023/03/21 12:10:44;;;;;;;18.63;4.75;;;16.70;73.70;;;;;;5123593;28;20082;-62
2023/03/21 12:13:28;;;;;;;6.53;3.70;;;16.70;73.70;;;;;;5119436;28;20066;-62
2023/03/21 12:16:16;;;;;;;9.50;3.50;;;16.70;74.00;;;;;;5119012;28;20091;-62
2023/03/21 12:18:45;;;;;;;13.45;3.45;;;16.70;74.20;;;;;;5127086;28;20153;-62
2023/03/21 12:21:25;;;;;;;14.63;4.30;;;16.70;74.50;;;;;;5118131;28;20189;-62
2023/03/21 12:24:03;;;;;;;12.77;3.97;;;16.80;74.90;;;;;;5119968;28;20446;-61
2023/03/21 12:26:58;;;;;;;12.02;3.92;;;16.80;75.20;;;;;;5119761;28;20404;-60
2023/03/21 12:29:45;;;;;;;14.18;4.90;;;16.80;75.40;;;;;;5120318;28;20412;-61
2023/03/21 12:32:38;;;;;;;12.40;6.03;;;16.80;75.50;;;;;;5123791;27;20166;-60
2023/03/21 12:35:16;;;;;;;15.18;6.07;;;16.70;75.50;;;;;;5114324;27;20107;-62
2023/03/21 12:37:56;;;;;;;12.73;5.00;;;16.80;75.80;;;;;;5120224;27;20088;-62
2023/03/21 12:41:02;;;;;;;12.50;5.93;;;16.80;76.60;;;;;;5123372;27;20080;-61
2023/03/21 12:43:39;;;;;;;17.58;6.25;;;16.80;75.90;;;;;;5123227;27;20075;-60
2023/03/21 12:46:26;;;;;;;12.10;5.10;;;16.80;75.90;;;;;;5123027;27;20181;-61
2023/03/21 12:48:55;;;;;;;;;;;16.80;75.80;;;;;;5124740;27;20070;-61
2023/03/21 12:51:31;;;;;;;22.60;5.50;;;16.80;75.90;;;;;;5119536;27;19979;-60
2023/03/21 12:54:27;;;;;;;24.80;5.32;;;16.70;75.80;;;;;;5120300;27;20443;-61
2023/03/21 12:57:28;;;;;;;21.75;5.97;;;16.80;76.10;;;;;;5051832;28;20093;-60
2023/03/21 13:00:10;;;;;;;24.08;6.70;;;16.80;76.00;;;;;;4987878;28;20097;-62
2023/03/21 13:02:42;;;;;;;17.42;6.43;;;16.70;76.00;;;;;;4990659;28;20117;-61
2023/03/21 13:05:45;;;;;;;26.27;5.97;;;16.80;76.20;;;;;;4988811;28;20081;-61
2023/03/21 13:08:25;;;;;;;16.92;5.40;;;16.80;76.10;;;;;;4988588;28;20097;-62
2023/03/21 13:10:52;;;;;;;14.20;5.80;;;16.70;76.10;;;;;;4989467;28;20106;-62
2023/03/21 13:13:18;;;;;;;14.02;4.93;;;16.80;75.90;;;;;;4989255;28;20579;-62